Time;durP1;ratioP1;P1;durP2;ratioP2;P2;SDS_P1;SDS_P2;PMS_P1;PMS_P2;Temp;Humidity;BMP_temperature;BMP_pressure;BME280_temperature;BME280_humidity;BME280_pressure;Samples;Min_cycle;Max_cycle;Signal;HPM_P1;HPM_P2
2022/08/25 00:00:42;;;;;;;8.13;4.68;;;;;;;22.27;100.00;97910.00;5072333;28;20176;-58
2022/08/25 00:03:08;;;;;;;11.65;4.88;;;;;;;22.35;100.00;97894.03;5072355;28;20650;-59
2022/08/25 00:05:33;;;;;;;6.55;4.82;;;;;;;22.42;100.00;97887.81;5072005;28;20180;-58
2022/08/25 00:08:00;;;;;;;17.05;4.55;;;;;;;22.57;100.00;97906.22;5072828;28;20202;-58
2022/08/25 00:10:26;;;;;;;9.35;4.60;;;;;;;22.62;100.00;97896.69;5071968;28;20555;-58
2022/08/25 00:12:51;;;;;;;9.15;5.00;;;;;;;22.72;100.00;97896.38;5072206;28;20176;-58
2022/08/25 00:15:17;;;;;;;10.85;4.93;;;;;;;22.48;100.00;97876.53;5072078;28;20601;-58
2022/08/25 00:17:42;;;;;;;15.20;4.63;;;;;;;22.42;100.00;97894.91;5071879;28;20175;-58
2022/08/25 00:20:09;;;;;;;9.80;4.05;;;;;;;22.22;100.00;97884.22;5075155;28;20180;-58
2022/08/25 00:22:35;;;;;;;11.18;4.07;;;;;;;22.31;100.00;97898.09;5078778;28;20180;-58
2022/08/25 00:25:00;;;;;;;11.10;4.78;;;;;;;22.38;100.00;97904.22;5078772;28;20260;-58
2022/08/25 00:27:26;;;;;;;13.68;4.13;;;;;;;22.29;100.00;97900.06;5079037;28;20259;-58
2022/08/25 00:29:52;;;;;;;7.28;3.58;;;;;;;22.24;100.00;97899.81;5078628;28;20168;-59
2022/08/25 00:32:18;;;;;;;6.07;3.25;;;;;;;22.32;100.00;97902.34;5078460;28;20172;-58
2022/08/25 00:34:44;;;;;;;3.67;2.40;;;;;;;22.35;100.00;97897.50;5078414;28;20199;-59
2022/08/25 00:37:09;;;;;;;9.35;3.05;;;;;;;22.39;100.00;97890.03;5078864;28;20233;-59
2022/08/25 00:39:37;;;;;;;6.00;2.70;;;;;;;22.38;100.00;97898.94;5079153;28;20258;-58
2022/08/25 00:42:04;;;;;;;3.85;2.30;;;;;;;22.35;100.00;97878.22;5078286;28;20180;-59
2022/08/25 00:44:32;;;;;;;4.47;2.00;;;;;;;22.42;100.00;97889.63;5078357;28;20645;-58
2022/08/25 00:47:00;;;;;;;4.72;1.80;;;;;;;22.36;100.00;97883.31;5078264;28;20176;-59
2022/08/25 00:49:39;;;;;;;3.95;2.08;;;;;;;22.41;100.00;97893.28;5078268;28;20172;-59
2022/08/25 00:52:04;;;;;;;3.92;1.88;;;;;;;22.45;100.00;97886.66;5078137;28;20218;-59
2022/08/25 00:54:36;;;;;;;3.28;1.90;;;;;;;22.44;100.00;97877.91;5078478;28;20168;-59
2022/08/25 00:57:04;;;;;;;3.17;1.92;;;;;;;22.58;100.00;97873.56;5078203;28;20275;-59
2022/08/25 00:59:29;;;;;;;2.95;2.05;;;;;;;22.54;100.00;97867.84;5078429;28;20176;-59
2022/08/25 01:01:57;;;;;;;2.88;2.13;;;;;;;22.65;100.00;97871.75;5078423;28;20203;-59
2022/08/25 01:04:24;;;;;;;5.40;1.92;;;;;;;22.49;100.00;97859.69;5078422;28;20176;-58
2022/08/25 01:06:50;;;;;;;3.30;2.42;;;;;;;22.49;100.00;97869.44;5078044;28;20180;-59
2022/08/25 01:09:17;;;;;;;5.22;2.70;;;;;;;22.49;100.00;97869.44;5078667;28;20259;-59
2022/08/25 01:11:44;;;;;;;6.47;2.47;;;;;;;22.58;100.00;97870.91;5078096;28;20712;-58
2022/08/25 01:14:13;;;;;;;4.40;3.03;;;;;;;22.63;100.00;97876.44;5078050;28;20699;-59
2022/08/25 01:16:40;;;;;;;5.47;3.00;;;;;;;22.56;100.00;97870.31;5078239;28;20552;-59
2022/08/25 01:19:07;;;;;;;8.90;2.95;;;;;;;22.60;100.00;97871.56;5078257;28;20180;-58
2022/08/25 01:21:40;;;;;;;5.28;3.22;;;;;;;22.57;100.00;97879.84;5078024;28;20274;-59
2022/08/25 01:24:06;;;;;;;8.35;2.85;;;;;;;22.48;100.00;97873.91;5078315;28;20245;-58
2022/08/25 01:26:33;;;;;;;9.88;3.47;;;;;;;22.41;100.00;97866.91;5077861;28;20169;-58
2022/08/25 01:29:20;;;;;;;7.25;3.00;;;;;;;22.43;100.00;97865.75;5077986;28;20176;-58
2022/08/25 01:31:50;;;;;;;8.05;2.67;;;;;;;22.46;100.00;97861.91;5075397;28;20169;-58
2022/08/25 01:34:17;;;;;;;3.95;3.10;;;;;;;22.31;100.00;97850.63;5075008;28;20263;-58
2022/08/25 01:36:43;;;;;;;7.50;3.03;;;;;;;22.41;100.00;97857.19;5074543;28;20208;-58
2022/08/25 01:39:09;;;;;;;5.28;2.50;;;;;;;22.41;100.00;97856.34;5074565;28;20176;-58
2022/08/25 01:42:08;;;;;;;6.55;2.72;;;;;;;22.46;100.00;97859.28;5074854;28;20191;-58
2022/08/25 01:44:37;;;;;;;8.68;2.97;;;;;;;22.46;100.00;97841.63;5075144;28;20315;-58
2022/08/25 01:47:04;;;;;;;4.22;2.67;;;;;;;22.63;100.00;97860.59;5074514;28;20165;-58
2022/08/25 01:49:31;;;;;;;5.35;2.80;;;;;;;22.60;100.00;97855.72;5074702;28;20176;-58
2022/08/25 01:52:06;;;;;;;10.13;2.50;;;;;;;22.63;100.00;97850.06;5074195;28;20207;-58
2022/08/25 01:54:32;;;;;;;11.50;2.85;;;;;;;22.74;100.00;97852.16;5074921;28;20164;-58
2022/08/25 01:56:58;;;;;;;5.63;2.53;;;;;;;22.64;100.00;97843.75;5074483;28;20238;-58
2022/08/25 01:59:25;;;;;;;6.43;2.25;;;;;;;22.63;100.00;97839.50;5074568;28;20172;-58
2022/08/25 02:01:51;;;;;;;9.52;3.17;;;;;;;22.56;100.00;97838.66;5074509;28;20177;-58
2022/08/25 02:04:17;;;;;;;5.80;2.80;;;;;;;22.62;100.00;97832.59;5074949;28;20185;-58
2022/08/25 02:06:42;;;;;;;4.90;2.80;;;;;;;22.46;100.00;97819.72;5074097;28;20172;-58
2022/08/25 02:09:13;;;;;;;5.43;3.05;;;;;;;22.52;100.00;97827.69;5074362;28;20204;-58
2022/08/25 02:11:42;;;;;;;4.15;2.83;;;;;;;22.57;100.00;97824.47;5074616;28;20156;-58
2022/08/25 02:14:10;;;;;;;7.78;2.10;;;;;;;22.50;100.00;97823.59;5073997;28;20195;-58
2022/08/25 02:16:37;;;;;;;6.75;2.53;;;;;;;22.34;100.00;97813.31;5073845;28;20677;-58
2022/08/25 02:19:05;;;;;;;3.35;2.50;;;;;;;22.04;100.00;97806.63;5073854;28;20577;-58
2022/08/25 02:21:31;;;;;;;5.70;3.00;;;;;;;21.95;100.00;97797.22;5073796;28;20664;-58
2022/08/25 02:23:57;;;;;;;7.03;2.90;;;;;;;21.96;100.00;97804.94;5074061;28;20180;-58
2022/08/25 02:26:23;;;;;;;9.57;3.10;;;;;;;22.01;100.00;97814.91;5074306;28;20175;-58
2022/08/25 02:28:51;;;;;;;7.50;3.53;;;;;;;22.06;100.00;97821.25;5073939;28;20176;-58
2022/08/25 02:31:18;;;;;;;7.53;3.05;;;;;;;21.89;100.00;97782.16;5073609;28;20622;-58
2022/08/25 02:33:44;;;;;;;8.73;3.17;;;;;;;22.11;100.00;97792.50;5073613;28;20172;-58
2022/08/25 02:36:10;;;;;;;8.10;2.90;;;;;;;21.99;100.00;97772.13;5073483;28;20257;-58
2022/08/25 02:38:36;;;;;;;9.15;3.45;;;;;;;22.17;100.00;97804.91;5073494;28;20637;-58
2022/08/25 02:41:12;;;;;;;5.78;2.95;;;;;;;22.24;100.00;97804.94;5073453;28;20275;-58
2022/08/25 02:43:39;;;;;;;6.65;2.83;;;;;;;22.13;100.00;97795.75;5073258;28;20554;-58
2022/08/25 02:46:04;;;;;;;6.25;3.20;;;;;;;22.05;100.00;97805.63;5073601;28;20180;-58
2022/08/25 02:48:30;;;;;;;9.18;2.97;;;;;;;21.89;100.00;97797.97;5073331;28;20173;-58
2022/08/25 02:51:00;;;;;;;10.13;3.65;;;;;;;22.02;100.00;97798.91;5073492;28;20271;-58
2022/08/25 02:53:27;;;;;;;11.05;3.80;;;;;;;22.08;100.00;97797.34;5072949;28;20346;-58
2022/08/25 02:55:53;;;;;;;8.27;3.97;;;;;;;21.95;100.00;97787.50;5073336;28;20211;-58
2022/08/25 02:58:19;;;;;;;11.55;4.10;;;;;;;22.16;100.00;97799.81;5073080;28;20259;-58
2022/08/25 03:00:46;;;;;;;7.03;3.88;;;;;;;22.24;100.00;97795.22;5073061;28;20212;-57
2022/08/25 03:03:11;;;;;;;9.73;3.70;;;;;;;22.00;100.00;97790.38;5055120;28;20193;-58
2022/08/25 03:05:37;;;;;;;13.20;4.55;;;;;;;21.93;100.00;97781.63;5073174;28;20544;-58
2022/08/25 03:08:03;;;;;;;6.47;3.72;;;;;;;21.85;100.00;97783.59;5073198;28;20668;-58
2022/08/25 03:10:29;;;;;;;11.43;3.90;;;;;;;21.91;100.00;97793.34;5073425;28;20172;-58
2022/08/25 03:12:54;;;;;;;18.38;4.03;;;;;;;21.95;100.00;97781.41;5072776;28;20168;-58
2022/08/25 03:15:20;;;;;;;7.32;4.15;;;;;;;21.96;100.00;97783.88;5072716;28;20164;-58
2022/08/25 03:17:48;;;;;;;11.35;4.03;;;;;;;22.03;100.00;97779.44;5072978;28;20169;-58
2022/08/25 03:20:14;;;;;;;7.90;3.38;;;;;;;22.03;100.00;97778.66;5072978;28;20174;-58
2022/08/25 03:22:41;;;;;;;13.10;3.83;;;;;;;22.10;100.00;97775.06;5072947;28;20173;-58
2022/08/25 03:27:51;;;;;;;13.18;4.63;;;;;;;22.05;100.00;97774.81;5072612;28;20159;-58
2022/08/25 03:30:17;;;;;;;15.93;4.70;;;;;;;22.17;100.00;97790.91;5072745;28;20172;-58
2022/08/25 03:32:43;;;;;;;11.95;4.38;;;;;;;22.12;100.00;97782.75;5072743;28;20169;-58
2022/08/25 03:35:08;;;;;;;12.63;3.92;;;;;;;22.27;100.00;97801.94;5072614;28;20177;-58
2022/08/25 03:37:35;;;;;;;7.53;3.15;;;;;;;22.25;100.00;97798.69;5072372;28;20168;-58
2022/08/25 03:40:03;;;;;;;6.72;4.07;;;;;;;22.25;100.00;97802.13;5072375;28;20172;-58
2022/08/25 03:42:29;;;;;;;13.38;3.92;;;;;;;22.29;100.00;97795.47;5072538;28;20616;-59
2022/08/25 03:44:54;;;;;;;13.45;3.70;;;;;;;22.28;100.00;97796.47;5072241;28;20267;-58
2022/08/25 03:47:20;;;;;;;13.85;4.00;;;;;;;22.33;100.00;97801.94;5072254;28;20160;-58
2022/08/25 03:49:45;;;;;;;10.65;3.95;;;;;;;22.30;100.00;97804.16;5072477;28;20180;-58
2022/08/25 03:52:11;;;;;;;8.95;3.47;;;;;;;22.28;100.00;97803.56;5072108;28;20770;-58
2022/08/25 03:54:36;;;;;;;14.77;4.45;;;;;;;22.25;100.00;97814.50;5071565;28;20172;-58
2022/08/25 03:57:02;;;;;;;9.52;3.80;;;;;;;22.34;100.00;97814.16;5072048;28;20188;-58
2022/08/25 03:59:28;;;;;;;13.57;3.70;;;;;;;22.41;100.00;97803.63;5072310;28;20183;-58
2022/08/25 04:01:53;;;;;;;13.95;4.32;;;;;;;22.23;100.00;97776.97;5072359;28;20176;-58
2022/08/25 04:04:19;;;;;;;16.23;4.85;;;;;;;22.54;100.00;97804.56;5072070;28;20242;-58
2022/08/25 04:06:46;;;;;;;9.80;3.85;;;;;;;22.67;100.00;97817.00;5071932;28;20176;-58
2022/08/25 04:09:11;;;;;;;18.67;4.40;;;;;;;22.78;100.00;97819.09;5072269;28;20176;-58
2022/08/25 04:11:37;;;;;;;18.65;5.13;;;;;;;22.65;100.00;97811.94;5072265;28;20177;-58
2022/08/25 04:14:04;;;;;;;10.70;3.95;;;;;;;22.67;100.00;97814.38;5072245;28;20211;-58
2022/08/25 04:16:32;;;;;;;14.73;4.47;;;;;;;22.65;100.00;97813.75;5072100;28;20196;-58
2022/08/25 04:19:01;;;;;;;13.10;4.78;;;;;;;22.53;100.00;97817.94;5072152;28;20680;-58
2022/08/25 04:21:27;;;;;;;13.65;5.32;;;;;;;22.29;100.00;97813.09;5071882;28;20172;-58
2022/08/25 04:23:55;;;;;;;14.88;4.55;;;;;;;22.33;100.00;97816.97;5071826;28;20172;-58
2022/08/25 04:26:27;;;;;;;16.48;4.32;;;;;;;22.53;100.00;97823.22;5072084;28;20168;-58
2022/08/25 04:28:54;;;;;;;14.20;5.20;;;;;;;22.74;100.00;97828.41;5071771;28;20176;-58
2022/08/25 04:31:20;;;;;;;18.45;4.45;;;;;;;22.85;100.00;97827.88;5072019;28;20226;-58
2022/08/25 04:33:47;;;;;;;9.93;4.50;;;;;;;22.85;100.00;97820.75;5071779;28;20172;-58
2022/08/25 04:36:13;;;;;;;17.80;4.97;;;;;;;22.76;100.00;97821.94;5071616;28;20203;-58
2022/08/25 04:38:41;;;;;;;9.88;4.03;;;;;;;22.50;100.00;97818.34;5072004;28;20196;-58
2022/08/25 04:41:08;;;;;;;22.02;5.70;;;;;;;22.36;100.00;97817.41;5071686;28;20265;-58
2022/08/25 04:43:35;;;;;;;12.63;4.57;;;;;;;22.33;100.00;97824.88;5071660;28;20172;-59
2022/08/25 04:46:06;;;;;;;16.65;4.20;;;;;;;22.49;100.00;97827.25;5071635;28;20606;-58
2022/08/25 04:48:32;;;;;;;14.57;4.35;;;;;;;22.56;100.00;97822.84;5071650;28;20184;-58
2022/08/25 04:50:57;;;;;;;15.23;4.35;;;;;;;22.70;100.00;97819.25;5072145;28;20204;-57
2022/08/25 04:53:23;;;;;;;9.63;4.22;;;;;;;22.84;100.00;97820.97;5071406;28;20235;-57
2022/08/25 04:55:49;;;;;;;13.88;4.50;;;;;;;22.95;100.00;97817.75;5071636;28;20220;-57
2022/08/25 04:58:15;;;;;;;13.48;4.20;;;;;;;22.96;100.00;97819.38;5071812;28;20675;-57
2022/08/25 05:00:42;;;;;;;13.70;4.18;;;;;;;23.09;100.00;97824.72;5071561;28;20184;-57
2022/08/25 05:03:08;;;;;;;15.77;4.60;;;;;;;23.18;100.00;97818.25;5071521;28;20611;-57
2022/08/25 05:05:37;;;;;;;17.40;5.28;;;;;;;23.16;100.00;97812.34;5071961;28;20165;-57
2022/08/25 05:08:04;;;;;;;17.42;4.25;;;;;;;23.15;100.00;97805.44;5074738;28;20169;-57
2022/08/25 05:10:30;;;;;;;14.32;4.43;;;;;;;23.19;100.00;97802.22;5075126;28;20740;-57
2022/08/25 05:12:56;;;;;;;10.90;4.38;;;;;;;23.19;100.00;97796.16;5075106;28;20215;-57
2022/08/25 05:18:05;;;;;;;13.75;4.40;;;;;;;23.19;100.00;97786.41;5075273;28;20171;-57
2022/08/25 05:20:30;;;;;;;17.17;4.45;;;;;;;23.29;100.00;97805.31;5075266;28;20255;-57
2022/08/25 05:22:57;;;;;;;16.92;4.45;;;;;;;23.14;100.00;97801.97;5074937;28;20172;-57
2022/08/25 05:25:23;;;;;;;15.32;4.50;;;;;;;23.18;100.00;97808.53;5075155;28;20246;-57
2022/08/25 05:27:49;;;;;;;14.27;4.38;;;;;;;23.14;100.00;97790.63;5075434;28;20177;-57
2022/08/25 05:30:14;;;;;;;11.95;4.93;;;;;;;23.14;100.00;97801.97;5074780;28;20173;-57
2022/08/25 05:32:40;;;;;;;12.07;3.70;;;;;;;23.13;100.00;97783.72;5074774;28;20206;-57
2022/08/25 05:35:06;;;;;;;15.25;4.25;;;;;;;23.09;100.00;97785.94;5074978;28;20218;-57
2022/08/25 05:37:32;;;;;;;12.75;4.13;;;;;;;23.17;100.00;97801.63;5074567;28;20704;-57
2022/08/25 05:39:57;;;;;;;16.83;4.10;;;;;;;23.22;100.00;97787.81;5074562;28;20204;-57
2022/08/25 05:42:23;;;;;;;9.15;4.00;;;;;;;23.25;100.00;97792.72;5074927;28;20172;-57
2022/08/25 05:44:48;;;;;;;11.05;3.97;;;;;;;23.33;100.00;97796.00;5074554;28;20172;-57
2022/08/25 05:47:14;;;;;;;9.35;3.67;;;;;;;23.45;100.00;97796.22;5074797;28;20203;-57
2022/08/25 05:49:39;;;;;;;11.57;3.95;;;;;;;23.56;100.00;97790.34;5074423;28;20637;-57
2022/08/25 05:52:05;;;;;;;15.55;4.45;;;;;;;23.54;100.00;97782.63;5056202;28;20341;-57
2022/08/25 05:54:30;;;;;;;14.18;4.07;;;;;;;23.67;100.00;97795.03;5074348;28;20255;-57
2022/08/25 05:56:56;;;;;;;17.50;3.67;;;;;;;23.73;100.00;97781.00;5074528;28;20688;-58
2022/08/25 05:59:22;;;;;;;13.32;3.75;;;;;;;23.70;100.00;97766.38;5074583;28;20561;-58
2022/08/25 06:04:32;;;;;;;9.20;3.58;;;;;;;23.92;100.00;97773.91;5075057;28;20678;-58
2022/08/25 06:06:57;;;;;;;8.98;2.80;;;;;;;24.08;100.00;97770.88;5074119;28;20168;-58
2022/08/25 06:09:23;;;;;;;6.38;2.50;;;;;;;24.15;100.00;97765.59;5074918;28;20187;-58
2022/08/25 06:11:49;;;;;;;7.57;2.85;;;;;;;24.26;100.00;97763.09;5074072;28;20176;-58
2022/08/25 06:14:15;;;;;;;7.88;2.80;;;;;;;24.34;100.00;97770.00;5074285;28;20204;-58
2022/08/25 06:16:40;;;;;;;13.85;2.58;;;;;;;24.42;100.00;97773.25;5073869;28;20200;-58
2022/08/25 06:19:08;;;;;;;10.48;2.40;;;;;;;24.49;100.00;97768.75;5073411;28;20176;-58
2022/08/25 06:21:34;;;;;;;10.95;3.03;;;;;;;24.51;100.00;97760.63;5073883;28;20180;-58
2022/08/25 06:23:59;;;;;;;10.98;2.63;;;;;;;24.63;100.00;97767.75;5073756;28;20183;-58
2022/08/25 06:26:25;;;;;;;12.18;3.45;;;;;;;24.72;100.00;97768.31;5074046;28;20172;-57
2022/08/25 06:28:51;;;;;;;9.73;2.85;;;;;;;24.82;100.00;97766.84;5073747;28;20180;-58
2022/08/25 06:31:18;;;;;;;6.40;2.88;;;;;;;24.96;100.00;97779.00;5073695;28;20172;-57
2022/08/25 06:33:43;;;;;;;7.53;2.67;;;;;;;25.06;100.00;97776.72;5074702;28;20267;-57
2022/08/25 06:36:09;;;;;;;7.57;3.55;;;;;;;25.14;100.00;97770.38;5073460;28;20361;-57
2022/08/25 06:38:34;;;;;;;14.98;3.80;;;;;;;25.11;100.00;97778.72;5073510;28;20183;-57
2022/08/25 06:41:05;;;;;;;12.05;3.28;;;;;;;25.18;100.00;97756.50;5073728;28;20185;-60
2022/08/25 06:43:32;;;;;;;6.75;3.08;;;;;;;25.38;100.00;97767.78;5055817;28;20176;-57
2022/08/25 06:46:07;;;;;;;10.02;3.42;;;;;;;25.45;100.00;97773.88;5073620;28;20283;-57
2022/08/25 06:48:33;;;;;;;16.42;3.38;;;;;;;25.47;100.00;97774.47;5073335;28;20696;-57
2022/08/25 06:50:58;;;;;;;10.30;3.63;;;;;;;25.62;100.00;97775.00;5073318;28;20255;-57
2022/08/25 06:53:24;;;;;;;9.50;3.58;;;;;;;25.68;100.00;97773.31;5073068;28;20299;-57
2022/08/25 06:55:56;;;;;;;22.00;3.55;;;;;;;25.58;100.00;97749.13;5073147;28;20283;-58
2022/08/25 06:58:22;;;;;;;5.07;3.00;;;;;;;25.78;100.00;97781.59;5073074;28;20272;-57
2022/08/25 07:00:48;;;;;;;8.85;3.25;;;;;;;25.80;100.00;97782.19;5073090;28;20180;-57
2022/08/25 07:03:13;;;;;;;9.95;3.53;;;;;;;25.78;100.00;97776.31;5073340;28;20223;-57
2022/08/25 07:05:38;;;;;;;9.55;3.15;;;;;;;25.59;100.00;97740.97;5072991;28;20165;-57
2022/08/25 07:08:04;;;;;;;7.07;3.03;;;;;;;25.77;100.00;97775.47;5072881;28;20569;-57
2022/08/25 07:10:29;;;;;;;9.10;3.53;;;;;;;25.83;100.00;97769.31;5072875;28;20181;-57
2022/08/25 07:12:55;;;;;;;9.25;3.05;;;;;;;25.80;100.00;97772.41;5072905;28;20330;-57
2022/08/25 07:15:20;;;;;;;10.82;4.75;;;;;;;25.68;100.00;97768.84;5072997;28;20176;-57
2022/08/25 07:17:47;;;;;;;7.65;3.70;;;;;;;25.72;100.00;97763.91;5054704;28;20577;-57
2022/08/25 07:20:13;;;;;;;11.70;3.47;;;;;;;25.85;100.00;97767.28;5072741;28;20208;-57
2022/08/25 07:22:39;;;;;;;19.15;6.47;;;;;;;25.95;100.00;97767.59;5073225;28;20310;-57
2022/08/25 07:25:05;;;;;;;10.15;4.18;;;;;;;25.94;100.00;97765.19;5072878;28;20179;-57
2022/08/25 07:27:31;;;;;;;15.48;3.70;;;;;;;25.97;100.00;97757.63;5072793;28;20551;-57
2022/08/25 07:29:57;;;;;;;10.77;4.80;;;;;;;26.14;100.00;97756.03;5071716;28;20168;-58
2022/08/25 07:32:22;;;;;;;16.58;8.38;;;;;;;26.25;100.00;97755.28;5072748;28;20191;-57
2022/08/25 07:37:32;;;;;;;12.85;4.55;;;;;;;26.45;100.00;97761.22;5072708;28;20609;-57
2022/08/25 07:40:02;;;;;;;22.20;7.25;;;;;;;26.62;100.00;97764.94;5072620;28;20255;-57
2022/08/25 07:42:27;;;;;;;32.42;8.48;;;;;;;26.75;97.14;97764.78;5072574;28;20565;-58
2022/08/25 07:44:53;;;;;;;18.20;8.93;;;;;;;26.84;97.30;97767.94;5072281;28;20177;-58
2022/08/25 07:47:18;;;;;;;34.50;8.43;;;;;;;26.98;90.39;97764.09;5072234;28;20547;-58
2022/08/25 07:49:43;;;;;;;27.73;8.85;;;;;;;27.02;94.27;97768.75;5072248;28;20179;-58
2022/08/25 07:52:09;;;;;;;21.77;8.10;;;;;;;27.22;92.19;97766.66;5071987;28;20704;-58
2022/08/25 07:54:35;;;;;;;33.63;9.20;;;;;;;27.34;91.91;97780.78;5072122;28;20173;-59
2022/08/25 07:57:05;;;;;;;23.77;8.27;;;;;;;27.46;90.73;97772.88;5072090;28;20211;-59
2022/08/25 07:59:31;;;;;;;29.55;8.80;;;;;;;27.39;89.63;97748.22;5072945;28;20230;-59
2022/08/25 08:01:57;;;;;;;26.35;9.30;;;;;;;27.61;90.03;97776.72;5072116;28;20309;-59
2022/08/25 08:04:23;;;;;;;26.55;9.48;;;;;;;27.73;88.41;97785.53;5072339;28;20669;-58
2022/08/25 08:06:48;;;;;;;29.27;9.07;;;;;;;27.78;87.40;97783.03;5072142;28;20176;-59
2022/08/25 08:09:14;;;;;;;23.73;9.00;;;;;;;27.85;86.23;97782.91;5072567;28;20630;-59
2022/08/25 08:11:43;;;;;;;31.33;8.68;;;;;;;27.89;83.84;97784.91;5072205;28;20183;-57
2022/08/25 08:14:10;;;;;;;26.60;8.95;;;;;;;27.90;84.65;97777.72;5071913;28;20727;-57
2022/08/25 08:16:37;;;;;;;30.42;9.13;;;;;;;28.01;86.45;97787.56;5072089;28;20204;-57
2022/08/25 08:19:03;;;;;;;25.40;7.55;;;;;;;28.07;80.10;97792.81;5072130;28;20191;-57
2022/08/25 08:21:33;;;;;;;24.85;7.88;;;;;;;28.09;82.85;97784.56;5071914;28;20175;-57
2022/08/25 08:23:59;;;;;;;24.88;8.07;;;;;;;28.15;82.29;97795.09;5071922;28;20161;-57
2022/08/25 08:26:27;;;;;;;32.72;8.57;;;;;;;28.16;78.02;97798.59;5071859;28;20182;-57
2022/08/25 08:28:52;;;;;;;34.63;8.43;;;;;;;28.18;75.26;97794.66;5072087;28;20204;-57
2022/08/25 08:31:20;;;;;;;24.08;8.43;;;;;;;28.24;75.66;97798.25;5071732;28;20227;-57
2022/08/25 08:33:47;;;;;;;23.13;8.38;;;;;;;28.23;75.67;97802.75;5072049;28;20184;-57
2022/08/25 08:36:13;;;;;;;25.77;8.00;;;;;;;28.26;75.16;97799.63;5071976;28;20207;-57
2022/08/25 08:38:40;;;;;;;24.70;8.88;;;;;;;28.30;75.98;97803.47;5071670;28;20188;-57
2022/08/25 08:44:48;;;;;;;24.02;8.07;;;;;;;28.39;73.45;97806.63;5075990;28;20171;-57
2022/08/25 08:47:49;;;;;;;26.27;8.00;;;;;;;28.40;73.71;97798.38;5075562;28;20210;-57
2022/08/25 08:50:37;;;;;;;26.67;8.52;;;;;;;28.45;74.29;97803.03;5075907;28;20221;-57
2022/08/25 08:53:13;;;;;;;30.23;9.45;;;;;;;28.43;72.37;97807.75;5064668;28;20615;-58
2022/08/25 08:55:43;;;;;;;28.58;8.52;;;;;;;28.52;73.93;97815.16;5075672;28;20175;-58
2022/08/25 08:58:15;;;;;;;27.38;7.82;;;;;;;28.62;72.15;97807.41;5075736;28;20318;-58
2022/08/25 09:00:50;;;;;;;29.48;8.48;;;;;;;28.67;71.88;97810.16;5075712;28;20157;-58
2022/08/25 09:03:36;;;;;;;27.23;8.38;;;;;;;28.72;71.87;97806.78;5075639;28;20166;-57
2022/08/25 09:06:09;;;;;;;28.38;8.48;;;;;;;28.74;71.57;97802.06;5075853;28;20156;-58
2022/08/25 09:08:36;;;;;;;39.58;8.27;;;;;;;28.85;70.51;97807.34;5075567;28;20165;-57
2022/08/25 09:11:35;;;;;;;27.08;8.73;;;;;;;28.85;71.29;97802.03;5075241;28;20173;-57
2022/08/25 09:14:25;;;;;;;24.63;8.23;;;;;;;28.91;72.91;97801.09;5070163;28;20184;-57
2022/08/25 09:17:01;;;;;;;26.83;8.68;;;;;;;29.00;71.84;97798.91;5075331;28;20506;-57
2022/08/25 09:19:46;;;;;;;32.95;8.40;;;;;;;29.06;71.74;97793.44;5075270;28;20213;-57
2022/08/25 09:22:30;;;;;;;24.67;8.43;;;;;;;29.19;70.73;97797.66;5075272;28;20237;-58
2022/08/25 09:25:10;;;;;;;16.23;7.65;;;;;;;29.24;69.48;97801.25;5075468;28;20192;-58
2022/08/25 09:27:47;;;;;;;28.50;7.47;;;;;;;29.17;68.62;97807.78;5075218;28;20160;-58
2022/08/25 09:30:18;;;;;;;34.30;9.43;;;;;;;29.14;65.85;97793.06;5075382;28;20234;-58
2022/08/25 09:32:49;;;;;;;41.33;7.90;;;;;;;29.18;63.42;97796.88;5075076;28;20180;-58
2022/08/25 09:35:28;;;;;;;30.40;7.97;;;;;;;29.23;63.21;97788.16;5075024;28;20196;-58
2022/08/25 09:38:07;;;;;;;29.90;7.30;;;;;;;29.29;60.49;97788.03;5074719;28;20192;-58
2022/08/25 09:40:37;;;;;;;31.38;7.63;;;;;;;29.30;59.93;97779.00;5074997;28;20243;-58
2022/08/25 09:43:17;;;;;;;33.50;6.68;;;;;;;29.37;59.01;97779.66;5074564;28;20177;-58
2022/08/25 09:45:47;;;;;;;30.85;7.95;;;;;;;29.35;61.19;97771.09;5074888;28;20225;-58
2022/08/25 09:48:23;;;;;;;25.27;7.30;;;;;;;29.39;63.74;97761.53;5074827;28;20191;-59
2022/08/25 09:50:57;;;;;;;34.67;8.20;;;;;;;29.42;61.15;97766.41;5074782;28;20545;-58
2022/08/25 09:53:23;;;;;;;29.45;7.55;;;;;;;29.42;60.70;97771.75;5073416;28;20223;-59
2022/08/25 09:55:58;;;;;;;31.25;6.78;;;;;;;29.37;59.11;97762.81;5074462;28;20239;-59
2022/08/25 09:58:24;;;;;;;23.65;6.32;;;;;;;29.53;57.21;97767.41;5074675;28;20610;-59
2022/08/25 10:01:12;;;;;;;41.55;7.07;;;;;;;29.60;56.96;97766.22;5074581;28;20653;-58
2022/08/25 10:03:51;;;;;;;25.95;6.63;;;;;;;29.66;56.18;97762.59;5074512;28;20163;-58
2022/08/25 10:06:17;;;;;;;32.15;6.82;;;;;;;29.72;56.07;97758.13;5074441;28;20192;-59
2022/08/25 10:08:42;;;;;;;32.42;6.55;;;;;;;29.77;56.71;97753.72;5074135;28;20211;-58
2022/08/25 10:11:14;;;;;;;33.92;6.25;;;;;;;29.86;56.81;97746.13;5074339;28;20184;-59
2022/08/25 10:13:45;;;;;;;22.13;6.30;;;;;;;29.87;56.15;97756.56;5074333;28;20169;-59
2022/08/25 10:16:22;;;;;;;28.98;6.63;;;;;;;29.81;56.32;97751.38;5074203;28;20235;-59
2022/08/25 10:19:18;;;;;;;31.58;7.50;;;;;;;29.78;54.17;97750.00;5073917;28;20233;-58
2022/08/25 10:21:44;;;;;;;26.13;6.75;;;;;;;29.72;55.66;97739.47;5073851;28;20175;-59
2022/08/25 10:24:12;;;;;;;35.15;5.97;;;;;;;29.69;55.52;97745.31;5074373;28;20177;-57
2022/08/25 10:27:07;;;;;;;27.42;6.03;;;;;;;29.78;57.02;97734.00;5074026;28;20240;-58
2022/08/25 10:29:41;;;;;;;26.92;7.75;;;;;;;29.99;54.99;97743.94;5074002;28;20184;-58
2022/08/25 10:32:16;;;;;;;29.50;6.22;;;;;;;30.20;55.66;97737.06;5073945;28;20653;-58
2022/08/25 10:34:42;;;;;;;30.65;6.80;;;;;;;30.26;55.93;97739.53;5073686;28;20195;-59
2022/08/25 10:37:16;;;;;;;27.05;6.43;;;;;;;30.29;54.37;97733.72;5073816;28;20720;-58
2022/08/25 10:39:45;;;;;;;36.53;6.88;;;;;;;30.26;54.14;97733.41;5073563;28;20170;-58
2022/08/25 10:42:46;;;;;;;42.47;7.53;;;;;;;30.25;52.76;97740.59;5073449;28;20184;-58
2022/08/25 10:48:12;;;;;;;33.38;6.72;;;;;;;30.11;52.52;97725.19;5073942;28;20184;-58
2022/08/25 10:50:43;;;;;;;32.08;6.93;;;;;;;30.04;54.37;97716.50;5073623;28;20168;-59
2022/08/25 10:53:12;;;;;;;30.33;5.72;;;;;;;30.06;54.90;97720.56;5073043;28;20211;-59
2022/08/25 10:55:56;;;;;;;33.92;6.50;;;;;;;30.03;55.26;97718.34;5073361;28;20191;-58
2022/08/25 10:59:03;;;;;;;35.03;7.22;;;;;;;29.95;55.50;97718.78;5073765;28;20164;-59
2022/08/25 11:01:40;;;;;;;33.10;7.10;;;;;;;29.99;54.87;97714.59;5073404;28;20214;-59
2022/08/25 11:04:12;;;;;;;29.50;6.47;;;;;;;29.95;54.70;97716.13;5073308;28;20194;-59
2022/08/25 11:07:16;;;;;;;32.25;6.25;;;;;;;29.88;56.07;97709.31;5073025;28;20164;-57
2022/08/25 11:09:46;;;;;;;31.17;6.38;;;;;;;29.86;55.50;97720.22;5048784;28;20605;-57
2022/08/25 11:12:25;;;;;;;31.02;6.07;;;;;;;30.04;54.46;97717.34;5072813;28;20665;-59
2022/08/25 11:14:58;;;;;;;30.70;6.53;;;;;;;30.32;56.29;97717.19;5073450;28;20182;-59
2022/08/25 11:17:27;;;;;;;43.00;6.53;;;;;;;30.62;54.95;97719.47;5073040;28;20192;-58
2022/08/25 11:19:59;;;;;;;28.65;5.82;;;;;;;30.86;53.27;97712.84;5072976;28;20184;-58
2022/08/25 11:22:44;;;;;;;31.88;6.63;;;;;;;31.05;54.32;97709.59;5054792;28;20172;-58
2022/08/25 11:25:30;;;;;;;26.77;6.20;;;;;;;31.26;53.15;97721.34;5072677;28;20180;-58
2022/08/25 11:28:02;;;;;;;25.25;5.57;;;;;;;31.49;50.50;97719.13;5073216;28;20171;-58
2022/08/25 11:30:28;;;;;;;30.63;6.40;;;;;;;31.60;51.24;97715.50;5072783;28;20203;-58
2022/08/25 11:32:55;;;;;;;32.80;6.72;;;;;;;31.78;51.56;97704.41;5072803;28;20194;-58
2022/08/25 11:35:32;;;;;;;21.13;5.75;;;;;;;31.88;51.31;97715.22;5072468;28;20255;-58
2022/08/25 11:37:57;;;;;;;29.48;6.68;;;;;;;31.94;49.04;97713.41;5072724;28;20222;-59
2022/08/25 11:40:38;;;;;;;25.45;6.07;;;;;;;32.08;49.77;97709.19;5072714;28;20169;-58
2022/08/25 11:43:24;;;;;;;30.45;6.03;;;;;;;32.12;48.40;97703.06;5072635;28;20243;-58
2022/08/25 11:46:01;;;;;;;34.15;6.57;;;;;;;31.89;49.25;97703.44;5072629;28;20157;-59
2022/08/25 11:48:48;;;;;;;25.45;6.63;;;;;;;32.03;48.40;97701.94;5072555;28;20160;-58